Time;durP1;ratioP1;P1;durP2;ratioP2;P2;SDS_P1;SDS_P2;PMS_P1;PMS_P2;Temp;Humidity;BMP_temperature;BMP_pressure;BME280_temperature;BME280_humidity;BME280_pressure;Samples;Min_cycle;Max_cycle;Signal;HPM_P1;HPM_P2
2021/09/14 00:00:11;;;;;;;6.65;4.72;;;14.90;99.90;;;;;;4953923;28;20043;-74
2021/09/14 00:02:40;;;;;;;7.28;4.78;;;14.80;99.90;;;;;;4954841;28;20457;-74
2021/09/14 00:05:06;;;;;;;5.75;4.72;;;14.80;99.90;;;;;;4955773;28;20035;-73
2021/09/14 00:07:33;;;;;;;7.65;4.85;;;14.80;99.90;;;;;;4960065;28;20043;-74
2021/09/14 00:10:00;;;;;;;6.13;4.25;;;14.70;99.90;;;;;;4956943;28;20035;-74
2021/09/14 00:12:26;;;;;;;6.10;4.93;;;14.70;99.90;;;;;;4954142;28;20385;-74
2021/09/14 00:14:52;;;;;;;5.75;4.38;;;14.60;99.90;;;;;;4954536;28;20031;-73
2021/09/14 00:17:18;;;;;;;5.88;5.00;;;14.60;99.90;;;;;;4953826;28;20067;-74
2021/09/14 00:19:45;;;;;;;8.52;5.82;;;14.60;99.90;;;;;;4954320;28;20034;-74
2021/09/14 00:22:11;;;;;;;7.50;5.47;;;14.60;99.90;;;;;;4953519;28;20054;-73
2021/09/14 00:24:37;;;;;;;6.63;5.18;;;14.50;99.90;;;;;;4954083;28;20034;-73
2021/09/14 00:27:04;;;;;;;7.65;5.22;;;14.50;99.90;;;;;;4954662;28;20466;-73
2021/09/14 00:29:30;;;;;;;8.77;5.40;;;14.50;99.90;;;;;;4954102;28;20354;-73
2021/09/14 00:31:56;;;;;;;8.35;5.13;;;14.50;99.90;;;;;;4954388;28;20035;-74
2021/09/14 00:34:22;;;;;;;6.97;5.40;;;14.50;99.90;;;;;;4959332;28;20039;-74
2021/09/14 00:36:49;;;;;;;6.40;5.40;;;14.50;99.90;;;;;;4958820;28;20055;-74
2021/09/14 00:39:15;;;;;;;6.90;6.13;;;14.50;99.90;;;;;;4961842;28;20039;-74
2021/09/14 00:41:41;;;;;;;8.02;4.68;;;14.40;99.90;;;;;;4961743;28;20389;-74
2021/09/14 00:44:07;;;;;;;8.00;5.43;;;14.30;99.90;;;;;;4961534;28;20043;-72
2021/09/14 00:46:34;;;;;;;6.10;4.93;;;14.30;99.90;;;;;;4961183;28;20051;-74
2021/09/14 00:49:01;;;;;;;7.28;5.68;;;14.30;99.90;;;;;;4963224;28;20035;-74
2021/09/14 00:51:27;;;;;;;6.78;5.53;;;14.20;99.90;;;;;;4961060;28;20064;-73
2021/09/14 00:53:53;;;;;;;9.93;5.30;;;14.00;99.90;;;;;;4943550;28;20050;-73
2021/09/14 00:56:20;;;;;;;6.80;5.25;;;14.00;99.90;;;;;;4959764;28;20047;-74
2021/09/14 00:58:47;;;;;;;8.05;5.35;;;14.00;99.90;;;;;;4960100;28;20059;-74
2021/09/14 01:01:13;;;;;;;7.47;5.35;;;14.00;99.90;;;;;;4959713;28;20469;-74
2021/09/14 01:03:39;;;;;;;8.82;6.00;;;14.00;99.90;;;;;;4960314;28;20073;-74
2021/09/14 01:06:06;;;;;;;9.35;6.20;;;14.00;99.90;;;;;;4970238;28;20039;-74
2021/09/14 01:08:35;;;;;;;6.47;5.00;;;14.00;99.90;;;;;;4949684;28;20503;-74
2021/09/14 01:11:03;;;;;;;6.88;5.47;;;13.90;99.90;;;;;;4958385;28;20050;-73
2021/09/14 01:13:29;;;;;;;6.70;5.22;;;13.90;99.90;;;;;;4958015;28;20055;-74
2021/09/14 01:16:02;;;;;;;8.30;5.65;;;13.90;99.90;;;;;;4943094;29;20055;-74
2021/09/14 01:18:28;;;;;;;8.77;5.70;;;13.90;99.90;;;;;;4958110;28;20066;-74
2021/09/14 01:20:55;;;;;;;11.27;6.30;;;13.90;99.90;;;;;;4959521;28;20051;-74
2021/09/14 01:23:21;;;;;;;6.80;5.35;;;13.80;99.90;;;;;;4959755;28;20369;-74
2021/09/14 01:25:47;;;;;;;7.57;6.15;;;13.70;99.90;;;;;;4958137;28;20043;-73
2021/09/14 01:28:13;;;;;;;8.57;5.25;;;13.70;99.90;;;;;;4958408;28;20058;-73
2021/09/14 01:30:40;;;;;;;8.20;5.82;;;13.70;99.90;;;;;;4960104;28;20035;-74
2021/09/14 01:33:08;;;;;;;8.18;5.32;;;13.70;99.90;;;;;;4958070;28;20043;-74
2021/09/14 01:35:37;;;;;;;9.27;5.80;;;13.60;99.90;;;;;;4958137;28;20401;-73
2021/09/14 01:38:07;;;;;;;8.05;6.05;;;13.50;99.90;;;;;;4958227;28;20047;-74
2021/09/14 01:40:37;;;;;;;7.53;5.82;;;13.60;99.90;;;;;;4958502;28;20043;-74
2021/09/14 01:43:06;;;;;;;9.00;5.75;;;13.50;99.90;;;;;;4958502;28;20050;-74
2021/09/14 01:45:34;;;;;;;9.55;5.47;;;13.60;99.90;;;;;;4954966;28;20051;-73
2021/09/14 01:48:03;;;;;;;8.10;5.47;;;13.60;99.90;;;;;;4942119;28;20058;-74
2021/09/14 01:50:30;;;;;;;8.90;6.13;;;13.50;99.90;;;;;;4958773;28;20156;-74
2021/09/14 01:53:00;;;;;;;8.10;6.78;;;13.40;99.90;;;;;;4955984;28;20047;-74
2021/09/14 01:55:29;;;;;;;9.52;6.40;;;13.40;99.90;;;;;;4939422;28;20047;-74
2021/09/14 01:57:56;;;;;;;7.63;6.07;;;13.30;99.90;;;;;;4939946;28;20047;-74
2021/09/14 02:00:26;;;;;;;7.25;5.75;;;13.30;99.90;;;;;;4956487;28;20046;-74
2021/09/14 02:43:24;;;;;;;9.23;6.40;;;13.10;99.90;;;;;;4955069;28;20043;-74
2021/09/14 02:59:38;;;;;;;9.52;7.65;;;13.20;99.90;;;;;;4953856;28;20050;-74
2021/09/14 03:02:06;;;;;;;11.77;7.45;;;13.20;99.90;;;;;;4954071;28;20066;-73
2021/09/14 03:04:33;;;;;;;9.23;6.65;;;13.20;99.90;;;;;;4953502;28;20090;-73
2021/09/14 03:07:00;;;;;;;9.60;7.22;;;13.20;99.90;;;;;;4953384;28;20051;-73
2021/09/14 03:09:34;;;;;;;9.75;7.55;;;13.10;99.90;;;;;;4938322;28;20405;-73
2021/09/14 03:12:01;;;;;;;9.40;7.32;;;13.20;99.90;;;;;;4954000;28;20050;-73
2021/09/14 03:14:30;;;;;;;8.50;6.57;;;13.10;99.90;;;;;;4954002;28;20042;-73
2021/09/14 03:16:58;;;;;;;7.80;6.28;;;13.20;99.90;;;;;;4953834;28;20404;-73
2021/09/14 03:19:24;;;;;;;9.63;7.18;;;13.10;99.90;;;;;;4938756;28;20043;-74
2021/09/14 03:21:50;;;;;;;11.05;7.25;;;13.20;99.90;;;;;;4971485;28;20047;-74
2021/09/14 03:24:16;;;;;;;9.65;7.75;;;13.10;99.90;;;;;;4937784;28;20043;-74
2021/09/14 03:26:43;;;;;;;10.10;6.65;;;13.10;99.90;;;;;;4954919;28;20023;-73
2021/09/14 03:29:09;;;;;;;10.90;6.90;;;13.10;99.90;;;;;;4955738;28;20039;-73
2021/09/14 03:31:41;;;;;;;9.70;7.05;;;13.10;99.90;;;;;;4954298;28;20050;-73
2021/09/14 03:34:08;;;;;;;10.18;7.88;;;13.10;99.90;;;;;;4952825;28;20166;-73
2021/09/14 03:36:34;;;;;;;10.85;7.30;;;13.00;99.90;;;;;;4953967;28;20070;-73
2021/09/14 03:39:01;;;;;;;10.82;7.78;;;12.90;99.90;;;;;;4953139;28;20047;-73
2021/09/14 03:41:28;;;;;;;10.15;8.50;;;12.90;99.90;;;;;;4952531;28;20059;-73
2021/09/14 03:43:54;;;;;;;13.32;8.15;;;12.90;99.90;;;;;;4953069;28;20051;-73
2021/09/14 03:46:22;;;;;;;11.32;8.77;;;13.00;99.90;;;;;;4952584;28;20039;-74
2021/09/14 03:48:49;;;;;;;11.10;8.25;;;13.00;99.90;;;;;;4954834;28;20055;-74
2021/09/14 03:51:16;;;;;;;10.52;7.82;;;12.90;99.90;;;;;;4954002;28;20047;-74
2021/09/14 03:53:44;;;;;;;10.65;7.35;;;12.90;99.90;;;;;;4971200;28;20039;-73
2021/09/14 03:56:10;;;;;;;9.75;7.85;;;12.80;99.90;;;;;;4954744;29;20035;-73
2021/09/14 03:58:39;;;;;;;10.45;8.18;;;12.80;99.90;;;;;;4952536;28;20051;-73
2021/09/14 04:01:08;;;;;;;11.68;7.32;;;12.80;99.90;;;;;;4952623;28;20054;-73
2021/09/14 04:06:22;;;;;;;12.85;7.45;;;12.70;99.90;;;;;;4936795;28;20385;-73
2021/09/14 04:08:51;;;;;;;9.35;7.53;;;12.60;99.90;;;;;;4952819;28;20382;-74
2021/09/14 04:11:22;;;;;;;9.45;7.30;;;12.60;99.90;;;;;;4952358;28;20051;-76
2021/09/14 04:13:51;;;;;;;10.25;7.30;;;12.60;99.90;;;;;;4937045;28;20039;-76
2021/09/14 04:16:18;;;;;;;8.27;7.13;;;12.60;99.90;;;;;;4954275;28;20038;-75
2021/09/14 04:18:45;;;;;;;8.98;6.93;;;12.60;99.90;;;;;;4952700;28;20404;-76
2021/09/14 04:21:12;;;;;;;11.35;7.93;;;12.60;99.90;;;;;;4965796;28;20055;-75
2021/09/14 04:23:38;;;;;;;11.27;7.50;;;12.60;99.90;;;;;;4962341;28;20039;-75
2021/09/14 04:26:05;;;;;;;11.00;7.80;;;12.60;99.90;;;;;;4957709;28;20050;-76
2021/09/14 04:28:32;;;;;;;9.82;7.55;;;12.50;99.90;;;;;;4957016;28;20058;-76
2021/09/14 04:30:59;;;;;;;11.82;7.65;;;12.40;99.90;;;;;;4969738;28;20053;-76
2021/09/14 04:33:26;;;;;;;11.23;8.48;;;12.40;99.90;;;;;;4990558;28;20042;-76
2021/09/14 04:35:55;;;;;;;16.15;8.30;;;12.30;99.90;;;;;;4976436;28;20054;-76
2021/09/14 04:38:26;;;;;;;10.30;7.97;;;12.30;99.90;;;;;;4961830;28;20047;-76
2021/09/14 04:40:52;;;;;;;12.00;7.88;;;12.20;99.90;;;;;;4938414;28;20043;-76
2021/09/14 04:43:19;;;;;;;11.50;9.05;;;12.30;99.90;;;;;;4953835;28;20035;-76
2021/09/14 04:45:45;;;;;;;13.68;8.85;;;12.40;99.90;;;;;;4953738;28;20047;-76
2021/09/14 04:48:12;;;;;;;12.43;8.68;;;12.30;99.90;;;;;;4953156;28;20047;-76
2021/09/14 04:50:39;;;;;;;12.70;9.30;;;12.30;99.90;;;;;;4950952;28;20043;-76
2021/09/14 04:53:07;;;;;;;11.43;8.30;;;12.30;99.90;;;;;;4952237;28;20047;-75
2021/09/14 04:55:35;;;;;;;11.23;7.93;;;12.30;99.90;;;;;;4951650;28;20055;-75
2021/09/14 04:58:02;;;;;;;10.30;7.70;;;12.30;99.90;;;;;;4953998;28;20390;-75
2021/09/14 05:00:28;;;;;;;10.30;7.68;;;12.30;99.90;;;;;;4952939;28;20050;-75
2021/09/14 05:02:55;;;;;;;9.98;7.75;;;12.20;99.90;;;;;;4952673;28;20039;-76
2021/09/14 05:05:22;;;;;;;10.85;7.70;;;12.20;99.90;;;;;;4936233;28;20039;-76
2021/09/14 05:07:49;;;;;;;11.13;7.30;;;12.20;99.90;;;;;;4936840;28;20055;-76
2021/09/14 05:10:16;;;;;;;8.63;6.75;;;12.10;99.90;;;;;;4936117;29;20044;-75
2021/09/14 05:12:49;;;;;;;10.77;7.15;;;12.10;99.90;;;;;;4952551;28;20039;-75
2021/09/14 05:15:15;;;;;;;13.02;8.55;;;12.10;99.90;;;;;;4953589;28;20047;-75
2021/09/14 05:18:12;;;;;;;9.40;6.80;;;12.20;99.90;;;;;;4966662;28;20047;-76
2021/09/14 05:20:47;;;;;;;11.13;8.45;;;12.20;99.90;;;;;;4939679;28;20043;-75
2021/09/14 05:23:19;;;;;;;10.20;7.45;;;12.20;99.90;;;;;;4940874;28;20040;-75
2021/09/14 05:25:46;;;;;;;11.00;7.80;;;12.30;99.90;;;;;;4957517;28;20039;-74
2021/09/14 05:28:13;;;;;;;9.68;6.47;;;12.40;99.90;;;;;;4949166;28;20054;-75
2021/09/14 05:30:43;;;;;;;9.50;7.28;;;12.40;99.90;;;;;;4927084;29;20036;-75
2021/09/14 05:33:09;;;;;;;8.73;6.82;;;12.50;99.90;;;;;;4958040;28;20046;-75
2021/09/14 05:35:45;;;;;;;10.35;7.85;;;12.60;99.90;;;;;;4967321;28;20039;-75
2021/09/14 05:38:14;;;;;;;9.75;7.80;;;12.60;99.90;;;;;;4955835;28;20043;-74
2021/09/14 05:40:40;;;;;;;10.73;7.82;;;12.70;99.90;;;;;;4974461;28;20055;-75
2021/09/14 05:43:13;;;;;;;10.65;8.88;;;12.90;99.90;;;;;;4956693;28;20043;-75
2021/09/14 05:45:40;;;;;;;14.52;8.60;;;13.10;99.90;;;;;;4954987;28;20035;-75
2021/09/14 05:48:06;;;;;;;8.65;7.32;;;13.70;99.90;;;;;;4955422;28;20043;-75
2021/09/14 05:50:37;;;;;;;7.00;6.25;;;14.70;99.90;;;;;;4955392;28;20039;-76
2021/09/14 05:53:04;;;;;;;10.07;5.70;;;15.70;99.90;;;;;;4940161;28;20046;-75
2021/09/14 05:55:30;;;;;;;7.00;5.18;;;16.60;99.90;;;;;;4954377;28;20054;-76
2021/09/14 05:58:00;;;;;;;5.25;3.97;;;16.80;99.90;;;;;;4954310;28;20047;-75
2021/09/14 06:00:26;;;;;;;7.85;5.13;;;17.00;99.60;;;;;;4956436;28;20027;-76
2021/09/14 06:02:53;;;;;;;5.25;4.75;;;17.40;97.80;;;;;;4938614;28;20050;-76
2021/09/14 06:05:19;;;;;;;5.30;4.50;;;18.20;96.10;;;;;;4953590;28;20508;-77
2021/09/14 06:07:46;;;;;;;6.18;4.28;;;19.10;93.80;;;;;;4954497;28;20055;-72
2021/09/14 06:10:14;;;;;;;5.85;3.88;;;19.40;90.60;;;;;;4954554;28;20043;-72
2021/09/14 06:12:59;;;;;;;4.35;3.70;;;19.60;88.60;;;;;;4938785;29;20404;-72
2021/09/14 06:15:26;;;;;;;4.75;3.80;;;19.20;88.40;;;;;;4972464;28;20397;-75
2021/09/14 06:17:53;;;;;;;5.75;4.75;;;18.70;90.20;;;;;;4942613;28;20401;-76
2021/09/14 06:20:19;;;;;;;5.78;5.00;;;18.50;90.60;;;;;;4938775;28;20054;-76
2021/09/14 06:22:45;;;;;;;6.50;4.15;;;18.60;90.80;;;;;;4955354;28;20050;-76
2021/09/14 06:25:12;;;;;;;6.40;4.03;;;18.60;91.00;;;;;;4955149;28;20035;-76
2021/09/14 06:27:41;;;;;;;6.07;4.78;;;18.60;90.90;;;;;;4938802;28;20389;-75
2021/09/14 06:30:09;;;;;;;5.95;4.85;;;18.80;90.80;;;;;;4939578;28;20046;-75
2021/09/14 06:32:36;;;;;;;6.32;5.18;;;18.60;91.30;;;;;;4955238;28;20047;-75
2021/09/14 06:35:03;;;;;;;5.72;4.63;;;18.50;91.70;;;;;;4938990;29;20054;-76
2021/09/14 06:37:38;;;;;;;5.35;4.50;;;18.50;92.00;;;;;;4961403;28;20043;-76
2021/09/14 06:40:06;;;;;;;8.32;5.50;;;18.90;91.40;;;;;;4954298;28;20379;-76
2021/09/14 06:42:33;;;;;;;5.65;4.78;;;19.30;90.20;;;;;;4953867;28;20043;-76
2021/09/14 06:45:15;;;;;;;5.40;4.80;;;19.30;90.50;;;;;;4954293;28;20043;-77
2021/09/14 06:48:09;;;;;;;5.38;4.88;;;19.80;88.30;;;;;;4953626;28;20401;-77
2021/09/14 06:50:35;;;;;;;6.68;5.43;;;20.30;86.00;;;;;;4955110;28;20031;-76
2021/09/14 06:53:01;;;;;;;5.63;4.55;;;19.90;86.90;;;;;;4954296;28;20369;-75
2021/09/14 06:55:28;;;;;;;5.93;5.20;;;19.60;88.10;;;;;;4955028;28;20054;-76
2021/09/14 06:57:54;;;;;;;6.00;4.95;;;19.50;88.50;;;;;;4955498;29;20405;-76
2021/09/14 07:00:22;;;;;;;6.75;4.88;;;19.50;88.00;;;;;;4953879;28;20044;-76
2021/09/14 07:02:48;;;;;;;5.15;4.65;;;19.60;88.60;;;;;;4963570;28;20027;-77
2021/09/14 07:05:14;;;;;;;6.20;5.38;;;19.80;87.00;;;;;;4967383;28;20031;-76
2021/09/14 07:07:40;;;;;;;6.13;4.93;;;19.80;86.70;;;;;;4957242;28;20031;-77
2021/09/14 07:10:07;;;;;;;7.43;5.13;;;19.50;88.30;;;;;;4968739;28;20488;-76
2021/09/14 07:12:34;;;;;;;5.82;5.10;;;20.00;86.50;;;;;;4954669;28;20046;-76
2021/09/14 07:15:00;;;;;;;5.70;4.95;;;20.30;85.00;;;;;;4955531;29;20050;-76
2021/09/14 07:17:26;;;;;;;5.00;4.40;;;20.10;86.10;;;;;;4955022;28;20488;-76
2021/09/14 07:19:52;;;;;;;5.60;4.95;;;20.10;86.30;;;;;;4974285;28;20488;-77
2021/09/14 07:22:19;;;;;;;6.28;5.28;;;19.60;87.80;;;;;;4955767;28;20062;-77
2021/09/14 07:24:45;;;;;;;6.47;5.78;;;19.90;88.50;;;;;;4955168;28;20042;-75
2021/09/14 07:27:11;;;;;;;5.88;5.28;;;19.80;86.90;;;;;;4955087;28;20035;-76
2021/09/14 07:29:38;;;;;;;6.47;5.82;;;18.60;90.40;;;;;;4954740;28;20047;-76
2021/09/14 07:32:05;;;;;;;10.93;6.35;;;18.60;91.20;;;;;;4955606;28;20374;-76
2021/09/14 07:34:33;;;;;;;9.13;6.75;;;18.60;91.40;;;;;;4954419;28;20055;-76
2021/09/14 07:36:59;;;;;;;8.23;6.50;;;18.60;91.80;;;;;;4955737;29;20058;-75
2021/09/14 07:39:25;;;;;;;6.15;5.45;;;19.40;90.90;;;;;;4954864;28;20039;-75
2021/09/14 07:41:51;;;;;;;7.97;5.82;;;20.00;87.90;;;;;;4954889;28;20417;-76
2021/09/14 07:44:17;;;;;;;7.20;6.22;;;19.70;89.40;;;;;;4954765;28;20051;-76
2021/09/14 07:46:44;;;;;;;8.70;6.30;;;20.00;88.40;;;;;;4964749;28;20042;-77
2021/09/14 07:49:10;;;;;;;7.55;6.78;;;19.90;87.50;;;;;;4954718;28;20035;-77
2021/09/14 07:51:36;;;;;;;8.23;6.80;;;19.90;88.10;;;;;;4963323;28;20031;-77
2021/09/14 07:54:03;;;;;;;8.07;7.28;;;20.10;87.80;;;;;;4953430;28;20039;-76
2021/09/14 07:56:29;;;;;;;8.70;7.50;;;20.80;84.90;;;;;;4954784;28;20031;-76
2021/09/14 07:58:55;;;;;;;10.43;7.47;;;21.10;83.10;;;;;;4955216;28;20050;-76
2021/09/14 08:01:22;;;;;;;10.82;8.32;;;20.60;84.10;;;;;;4954603;28;20035;-75
2021/09/14 08:03:48;;;;;;;11.13;7.30;;;19.90;86.70;;;;;;4954704;28;20035;-76
2021/09/14 08:06:14;;;;;;;10.02;7.88;;;19.90;88.70;;;;;;4972627;28;20465;-76
2021/09/14 08:08:40;;;;;;;10.43;7.80;;;20.40;85.70;;;;;;4957061;28;20039;-75
2021/09/14 08:11:06;;;;;;;10.77;7.47;;;20.70;85.30;;;;;;4955195;28;20027;-76
2021/09/14 08:13:34;;;;;;;9.90;8.30;;;21.00;84.10;;;;;;4952598;28;20039;-75
2021/09/14 08:16:00;;;;;;;9.77;8.75;;;21.00;83.60;;;;;;4954744;28;20035;-75
2021/09/14 08:18:26;;;;;;;10.60;8.63;;;21.00;82.80;;;;;;4954766;28;20047;-76
2021/09/14 08:20:53;;;;;;;11.43;9.18;;;21.20;81.50;;;;;;4956422;28;20039;-76
2021/09/14 08:23:20;;;;;;;11.77;8.95;;;21.50;81.20;;;;;;4955599;28;20058;-76
2021/09/14 08:25:46;;;;;;;12.63;9.10;;;21.70;80.60;;;;;;4955545;28;20038;-76
2021/09/14 08:28:12;;;;;;;8.93;7.85;;;21.80;80.30;;;;;;4955163;28;20032;-77
2021/09/14 08:30:39;;;;;;;10.07;9.00;;;22.80;77.60;;;;;;4954346;28;20046;-76
2021/09/14 08:33:05;;;;;;;13.27;9.90;;;23.30;75.60;;;;;;4954703;28;20108;-76
2021/09/14 08:35:31;;;;;;;11.80;9.95;;;23.10;73.30;;;;;;4954050;28;20036;-77
2021/09/14 08:37:58;;;;;;;12.48;9.40;;;23.20;74.00;;;;;;4957467;28;20035;-75
2021/09/14 08:40:24;;;;;;;10.88;9.38;;;23.80;73.00;;;;;;4957458;28;20036;-75
2021/09/14 08:42:51;;;;;;;121.10;21.50;;;23.00;74.30;;;;;;4966189;28;20035;-78
2021/09/14 08:45:17;;;;;;;11.25;9.82;;;23.40;73.60;;;;;;4966187;28;20042;-77
2021/09/14 08:47:45;;;;;;;13.65;10.82;;;23.70;72.20;;;;;;4955743;28;20042;-77
2021/09/14 08:50:11;;;;;;;13.85;9.60;;;22.90;72.60;;;;;;4954973;28;20047;-78
2021/09/14 08:52:38;;;;;;;15.60;10.63;;;22.40;74.10;;;;;;4953085;28;20373;-78
2021/09/14 08:55:05;;;;;;;11.63;9.43;;;22.20;75.10;;;;;;4957290;28;20054;-75
2021/09/14 08:57:32;;;;;;;12.50;9.73;;;21.80;78.30;;;;;;4962759;28;20034;-76
2021/09/14 08:59:58;;;;;;;12.07;10.38;;;21.80;77.20;;;;;;4965174;28;20046;-77
2021/09/14 09:02:24;;;;;;;13.07;9.20;;;21.60;78.40;;;;;;4969902;28;20036;-76
2021/09/14 09:04:56;;;;;;;14.00;11.57;;;21.90;78.40;;;;;;4971490;28;20049;-77
2021/09/14 09:07:34;;;;;;;1999.90;999.90;;;22.60;76.40;;;;;;4968963;28;20058;-76
2021/09/14 09:10:15;;;;;;;1999.90;999.90;;;23.20;73.60;;;;;;4959028;28;20035;-77
2021/09/14 09:12:48;;;;;;;1999.90;999.90;;;22.80;74.50;;;;;;4958147;28;20031;-77
2021/09/14 09:15:29;;;;;;;1999.90;999.90;;;22.60;74.70;;;;;;4958192;28;20038;-77
2021/09/14 09:18:00;;;;;;;1999.90;999.90;;;22.80;75.60;;;;;;4958388;28;20047;-75
2021/09/14 09:20:27;;;;;;;1999.90;999.90;;;23.10;73.80;;;;;;4957811;28;20039;-78
2021/09/14 09:23:01;;;;;;;1999.90;999.90;;;23.60;72.00;;;;;;4957470;28;20035;-77
2021/09/14 09:25:28;;;;;;;1999.90;999.90;;;23.90;72.40;;;;;;4956943;28;20039;-77
2021/09/14 09:28:17;;;;;;;1999.90;999.90;;;23.70;71.30;;;;;;4957476;28;20027;-77
2021/09/14 09:30:56;;;;;;;1999.90;999.90;;;24.00;71.10;;;;;;4956937;28;20389;-78
2021/09/14 09:33:31;;;;;;;1999.90;999.90;;;24.10;71.40;;;;;;4957145;28;20287;-77
2021/09/14 09:36:05;;;;;;;1999.90;999.90;;;24.50;70.30;;;;;;4957488;28;20516;-78
2021/09/14 09:38:43;;;;;;;1999.90;999.90;;;24.30;69.30;;;;;;4956276;28;20062;-77
2021/09/14 09:41:17;;;;;;;1999.90;999.90;;;24.70;68.40;;;;;;4957154;28;20043;-78
2021/09/14 09:43:44;;;;;;;1999.90;999.90;;;25.10;68.10;;;;;;4957534;28;20042;-77
2021/09/14 09:46:17;;;;;;;1999.90;999.90;;;24.80;68.70;;;;;;4939809;28;20047;-77
2021/09/14 09:48:44;;;;;;;1999.90;999.90;;;25.20;67.80;;;;;;4956370;28;20424;-77
2021/09/14 09:51:11;;;;;;;1999.90;999.90;;;25.60;67.20;;;;;;4956705;28;20093;-77
2021/09/14 09:53:38;;;;;;;1999.90;999.90;;;25.30;67.50;;;;;;4955886;28;20043;-76
2021/09/14 09:56:06;;;;;;;1999.90;999.90;;;25.30;67.00;;;;;;4973541;28;20042;-77
2021/09/14 09:58:32;;;;;;;1999.90;999.90;;;25.10;66.40;;;;;;4961014;28;20485;-77
2021/09/14 10:01:21;;;;;;;1999.90;999.90;;;25.00;67.20;;;;;;4955558;28;20047;-78
2021/09/14 10:04:00;;;;;;;1999.90;999.90;;;25.00;68.00;;;;;;4956546;28;20484;-77
2021/09/14 10:06:31;;;;;;;1999.90;999.90;;;25.00;67.00;;;;;;4955543;28;20039;-77
2021/09/14 10:08:58;;;;;;;7.78;5.65;;;24.00;67.50;;;;;;4939213;28;20042;-76
2021/09/14 10:11:30;;;;;;;8.50;6.70;;;23.90;69.40;;;;;;4956247;28;20471;-76
2021/09/14 10:14:23;;;;;;;7.22;5.93;;;23.60;70.00;;;;;;4956426;28;20370;-76
2021/09/14 10:16:49;;;;;;;6.95;6.25;;;23.70;70.30;;;;;;4954362;28;20050;-78
2021/09/14 10:19:18;;;;;;;8.88;6.03;;;23.90;69.90;;;;;;4956511;28;20147;-76
2021/09/14 10:21:59;;;;;;;6.97;5.32;;;23.50;71.40;;;;;;4955993;28;20496;-76
2021/09/14 10:24:26;;;;;;;8.13;6.00;;;23.90;70.30;;;;;;4955902;28;20039;-76
2021/09/14 10:27:07;;;;;;;7.28;5.43;;;24.10;70.10;;;;;;4956246;28;20028;-75
2021/09/14 10:29:34;;;;;;;7.60;5.72;;;24.40;69.00;;;;;;4955635;28;20043;-76
2021/09/14 10:32:03;;;;;;;6.45;5.25;;;24.50;69.00;;;;;;4957213;28;20031;-76
2021/09/14 10:34:29;;;;;;;5.68;4.32;;;24.90;68.60;;;;;;4956460;28;20039;-76
2021/09/14 10:37:06;;;;;;;42.95;8.73;;;25.00;68.10;;;;;;4956257;28;20043;-75
2021/09/14 10:39:35;;;;;;;1999.90;999.90;;;24.60;68.50;;;;;;4969966;28;20035;-77
2021/09/14 10:42:16;;;;;;;580.70;527.70;;;24.40;69.30;;;;;;4969232;28;20043;-76
2021/09/14 10:44:43;;;;;;;1999.90;999.90;;;24.50;68.80;;;;;;4965831;28;20034;-79
2021/09/14 10:47:14;;;;;;;1999.90;999.90;;;24.20;69.10;;;;;;4956740;28;20213;-77
2021/09/14 10:49:48;;;;;;;183.48;174.50;;;24.00;69.90;;;;;;4938320;28;20047;-78
2021/09/14 10:52:30;;;;;;;1999.90;999.90;;;24.30;69.20;;;;;;4966613;28;20469;-78
2021/09/14 10:54:57;;;;;;;1999.90;999.90;;;24.60;69.90;;;;;;4955268;28;20043;-78
2021/09/14 10:57:41;;;;;;;1999.90;999.90;;;25.20;68.30;;;;;;4955871;28;20044;-77
2021/09/14 11:00:10;;;;;;;1999.90;999.90;;;25.10;67.60;;;;;;4956050;28;20031;-76
2021/09/14 11:02:38;;;;;;;1999.90;999.90;;;25.10;68.30;;;;;;4955278;28;20058;-76
2021/09/14 11:05:09;;;;;;;1999.90;999.90;;;25.00;69.00;;;;;;4955602;28;20043;-77
2021/09/14 11:07:35;;;;;;;1999.90;999.90;;;25.10;68.50;;;;;;4954267;28;20050;-76
2021/09/14 11:10:11;;;;;;;1999.90;999.90;;;25.10;68.10;;;;;;4955552;28;20035;-76
2021/09/14 11:12:37;;;;;;;1999.90;999.90;;;25.10;67.10;;;;;;4955458;28;20038;-76
2021/09/14 11:15:04;;;;;;;1999.90;999.90;;;25.20;67.40;;;;;;4955721;28;20028;-77
2021/09/14 11:17:34;;;;;;;1999.90;999.90;;;25.10;67.30;;;;;;4954821;28;20438;-76
2021/09/14 11:20:13;;;;;;;1999.90;999.90;;;25.10;68.30;;;;;;4956161;29;20069;-76
2021/09/14 11:22:41;;;;;;;1999.90;999.90;;;24.80;68.10;;;;;;4955839;28;20046;-77
2021/09/14 11:25:14;;;;;;;1999.90;999.90;;;24.70;69.10;;;;;;4956448;28;20454;-79
2021/09/14 11:27:41;;;;;;;1999.90;999.90;;;25.00;67.80;;;;;;4956170;28;20039;-76
2021/09/14 11:30:13;;;;;;;1999.90;999.90;;;24.80;68.10;;;;;;4955687;28;20083;-76
2021/09/14 11:32:39;;;;;;;1999.90;999.90;;;24.80;69.50;;;;;;4938843;29;20047;-78
2021/09/14 11:35:09;;;;;;;1999.90;999.90;;;25.20;68.70;;;;;;4955922;28;20039;-77
2021/09/14 11:37:35;;;;;;;;;;;25.20;68.30;;;;;;4955867;28;20054;-77
2021/09/14 11:40:02;;;;;;;5.20;4.70;;;25.10;68.60;;;;;;4956105;28;20303;-77
2021/09/14 11:42:28;;;;;;;5.75;4.18;;;25.40;67.90;;;;;;4955471;28;20072;-77
2021/09/14 11:45:04;;;;;;;5.38;4.03;;;25.70;67.50;;;;;;4956252;28;20412;-77
2021/09/14 11:47:31;;;;;;;4.50;4.07;;;25.80;67.40;;;;;;4954506;28;20035;-76
2021/09/14 11:49:57;;;;;;;6.43;4.60;;;25.60;66.90;;;;;;4964168;28;20043;-76
2021/09/14 11:52:26;;;;;;;6.13;3.97;;;25.50;66.70;;;;;;4956179;28;20042;-77
2021/09/14 11:54:54;;;;;;;5.50;4.53;;;25.50;67.60;;;;;;4956043;28;20051;-78
2021/09/14 11:57:21;;;;;;;4.78;4.10;;;25.60;67.40;;;;;;4955873;28;20031;-78
2021/09/14 11:59:48;;;;;;;5.57;4.53;;;25.40;68.20;;;;;;4954892;28;20038;-79
2021/09/14 12:02:17;;;;;;;4.78;4.28;;;25.10;67.00;;;;;;4956326;29;20055;-78
2021/09/14 12:04:44;;;;;;;510.00;353.13;;;24.90;68.50;;;;;;4955708;28;20044;-78
2021/09/14 12:07:19;;;;;;;1999.90;999.90;;;24.80;68.40;;;;;;4954259;28;20489;-77
2021/09/14 12:09:45;;;;;;;1999.90;999.90;;;24.80;68.90;;;;;;4956547;28;20040;-78
2021/09/14 12:12:12;;;;;;;1999.90;999.90;;;25.10;68.00;;;;;;4959368;28;20035;-79
2021/09/14 12:14:38;;;;;;;1999.90;999.90;;;25.30;67.90;;;;;;4965825;29;20058;-79
2021/09/14 12:17:05;;;;;;;1999.90;999.90;;;25.30;67.10;;;;;;4962182;28;20027;-77
2021/09/14 12:19:33;;;;;;;1999.90;999.90;;;25.30;67.20;;;;;;4957097;28;20035;-77
2021/09/14 12:22:00;;;;;;;1999.90;999.90;;;25.50;67.50;;;;;;4958265;28;20063;-77
2021/09/14 12:24:26;;;;;;;1999.90;999.90;;;25.20;67.10;;;;;;4956309;28;20038;-76
2021/09/14 12:26:55;;;;;;;1999.90;999.90;;;25.30;67.30;;;;;;4956430;28;20039;-76
2021/09/14 12:29:22;;;;;;;680.00;346.07;;;25.30;68.50;;;;;;4954650;28;20039;-77
2021/09/14 12:31:49;;;;;;;1999.90;999.90;;;25.50;68.40;;;;;;4955793;28;20035;-77
2021/09/14 12:34:16;;;;;;;1999.90;999.90;;;25.60;66.90;;;;;;4955514;28;20362;-76
2021/09/14 12:36:43;;;;;;;1999.90;999.90;;;25.70;67.20;;;;;;4954500;28;20039;-77
2021/09/14 12:39:11;;;;;;;1999.90;999.90;;;25.80;67.00;;;;;;4967634;28;20420;-78
2021/09/14 12:41:38;;;;;;;1999.90;999.90;;;25.80;67.00;;;;;;4962184;28;20039;-77
2021/09/14 12:44:05;;;;;;;1999.90;999.90;;;25.90;66.30;;;;;;4956389;28;20032;-79
2021/09/14 12:46:31;;;;;;;1999.90;999.90;;;26.10;65.30;;;;;;4961034;28;20032;-78
2021/09/14 12:48:58;;;;;;;1999.90;999.90;;;25.80;66.00;;;;;;4954163;28;20040;-78
2021/09/14 12:51:24;;;;;;;1999.90;999.90;;;25.70;66.00;;;;;;4953984;28;20369;-78
2021/09/14 12:53:50;;;;;;;1999.90;999.90;;;25.90;65.90;;;;;;4954171;28;20373;-78
2021/09/14 12:56:18;;;;;;;6.20;4.20;;;25.80;66.20;;;;;;4953995;28;20046;-78
2021/09/14 12:58:45;;;;;;;5.03;3.83;;;25.50;67.40;;;;;;4953613;28;20050;-78
2021/09/14 13:01:11;;;;;;;4.97;3.90;;;25.70;67.40;;;;;;4971835;28;20046;-77
2021/09/14 13:03:38;;;;;;;5.00;3.63;;;26.00;67.70;;;;;;4955816;28;20054;-77
2021/09/14 13:06:04;;;;;;;4.72;3.78;;;26.20;67.20;;;;;;4936791;28;20046;-79
2021/09/14 13:08:30;;;;;;;5.22;4.15;;;26.60;67.20;;;;;;4953757;28;20043;-78
2021/09/14 13:10:56;;;;;;;6.10;4.40;;;26.60;64.80;;;;;;4954836;28;20477;-80
2021/09/14 13:16:12;;;;;;;5.20;3.35;;;26.30;66.40;;;;;;4954024;28;20039;-78
2021/09/14 13:18:40;;;;;;;4.03;3.10;;;26.50;67.00;;;;;;4955888;28;20404;-78
2021/09/14 13:21:07;;;;;;;4.68;3.92;;;27.00;66.00;;;;;;4962031;28;20039;-77
2021/09/14 13:23:34;;;;;;;4.80;3.28;;;27.40;64.30;;;;;;4953990;28;20412;-77
2021/09/14 13:26:01;;;;;;;4.10;3.47;;;27.40;64.20;;;;;;4954010;28;20043;-79
2021/09/14 13:28:27;;;;;;;1999.90;999.90;;;27.40;63.50;;;;;;4964668;28;20042;-78
2021/09/14 13:30:53;;;;;;;1999.90;999.90;;;27.20;63.90;;;;;;4970965;28;20054;-79
2021/09/14 13:33:20;;;;;;;1999.90;999.90;;;27.30;63.90;;;;;;4979881;28;20038;-77
2021/09/14 13:35:46;;;;;;;1999.90;999.90;;;27.20;65.20;;;;;;4965202;28;20039;-77
2021/09/14 13:38:13;;;;;;;1999.90;999.90;;;27.20;65.50;;;;;;4960376;29;20039;-78